sensor_id;sensor_type;location;lat;lon;timestamp;pressure;altitude;pressure_sealevel;temperature;humidity
51083;BME280;37131;42.694;23.350;2023-02-28T00:00:13;95929.69;;;7.00;100.00
51083;BME280;37131;42.694;23.350;2023-02-28T00:02:40;95935.47;;;6.65;100.00
51083;BME280;37131;42.694;23.350;2023-02-28T00:05:08;95937.22;;;6.80;100.00
51083;BME280;37131;42.694;23.350;2023-02-28T00:07:35;95898.94;;;6.60;100.00
51083;BME280;37131;42.694;23.350;2023-02-28T00:10:01;95948.69;;;6.71;100.00
51083;BME280;37131;42.694;23.350;2023-02-28T00:12:27;95940.88;;;6.85;100.00
51083;BME280;37131;42.694;23.350;2023-02-28T00:14:52;95949.38;;;6.28;100.00
51083;BME280;37131;42.694;23.350;2023-02-28T00:17:18;95948.56;;;6.27;100.00
51083;BME280;37131;42.694;23.350;2023-02-28T00:19:47;95953.44;;;5.92;100.00
51083;BME280;37131;42.694;23.350;2023-02-28T00:22:13;95955.09;;;6.08;100.00
51083;BME280;37131;42.694;23.350;2023-02-28T00:24:38;95961.00;;;6.17;100.00
51083;BME280;37131;42.694;23.350;2023-02-28T00:27:04;95962.69;;;6.10;100.00
51083;BME280;37131;42.694;23.350;2023-02-28T00:29:29;95980.44;;;6.43;100.00
51083;BME280;37131;42.694;23.350;2023-02-28T00:31:54;95973.41;;;6.37;100.00
51083;BME280;37131;42.694;23.350;2023-02-28T00:34:20;95966.19;;;5.79;100.00
51083;BME280;37131;42.694;23.350;2023-02-28T00:36:45;95968.31;;;5.75;100.00
51083;BME280;37131;42.694;23.350;2023-02-28T00:39:14;95964.56;;;6.01;100.00
51083;BME280;37131;42.694;23.350;2023-02-28T00:41:39;95972.09;;;5.88;100.00
51083;BME280;37131;42.694;23.350;2023-02-28T00:44:05;95973.66;;;6.12;100.00
51083;BME280;37131;42.694;23.350;2023-02-28T00:46:30;95957.34;;;6.11;100.00
51083;BME280;37131;42.694;23.350;2023-02-28T00:48:55;95954.94;;;5.72;100.00
51083;BME280;37131;42.694;23.350;2023-02-28T00:51:21;95952.13;;;5.96;100.00
51083;BME280;37131;42.694;23.350;2023-02-28T00:53:46;95946.81;;;5.90;100.00
51083;BME280;37131;42.694;23.350;2023-02-28T00:56:11;95947.50;;;6.07;100.00
51083;BME280;37131;42.694;23.350;2023-02-28T00:58:37;95939.28;;;5.65;100.00
51083;BME280;37131;42.694;23.350;2023-02-28T01:01:02;95947.59;;;5.75;100.00
51083;BME280;37131;42.694;23.350;2023-02-28T01:03:28;95935.75;;;5.81;100.00
51083;BME280;37131;42.694;23.350;2023-02-28T01:05:53;95964.72;;;6.00;100.00
51083;BME280;37131;42.694;23.350;2023-02-28T01:08:19;95941.03;;;5.88;100.00
51083;BME280;37131;42.694;23.350;2023-02-28T01:10:44;95967.22;;;6.23;100.00
51083;BME280;37131;42.694;23.350;2023-02-28T01:13:12;95954.38;;;6.14;100.00
51083;BME280;37131;42.694;23.350;2023-02-28T01:15:40;95938.81;;;5.85;100.00
51083;BME280;37131;42.694;23.350;2023-02-28T01:18:07;95940.78;;;5.97;100.00
51083;BME280;37131;42.694;23.350;2023-02-28T01:20:32;95927.38;;;5.79;100.00
51083;BME280;37131;42.694;23.350;2023-02-28T01:22:57;95957.31;;;5.58;100.00
51083;BME280;37131;42.694;23.350;2023-02-28T01:25:23;95964.38;;;5.41;100.00
51083;BME280;37131;42.694;23.350;2023-02-28T01:27:48;95950.91;;;5.69;100.00
51083;BME280;37131;42.694;23.350;2023-02-28T01:30:14;95942.00;;;5.87;100.00
51083;BME280;37131;42.694;23.350;2023-02-28T01:32:39;95946.59;;;5.61;100.00
51083;BME280;37131;42.694;23.350;2023-02-28T01:35:05;95953.41;;;5.62;100.00
51083;BME280;37131;42.694;23.350;2023-02-28T01:37:30;95946.75;;;5.83;100.00
51083;BME280;37131;42.694;23.350;2023-02-28T01:39:56;95949.03;;;5.63;100.00
51083;BME280;37131;42.694;23.350;2023-02-28T01:42:21;95953.66;;;5.68;100.00
51083;BME280;37131;42.694;23.350;2023-02-28T01:47:38;95947.34;;;6.08;100.00
51083;BME280;37131;42.694;23.350;2023-02-28T01:50:10;95955.16;;;5.62;100.00
51083;BME280;37131;42.694;23.350;2023-02-28T01:52:37;95954.88;;;5.42;100.00
51083;BME280;37131;42.694;23.350;2023-02-28T01:55:04;95954.28;;;5.32;100.00
51083;BME280;37131;42.694;23.350;2023-02-28T01:57:41;95956.94;;;5.47;100.00
51083;BME280;37131;42.694;23.350;2023-02-28T02:00:14;95957.06;;;5.30;100.00
51083;BME280;37131;42.694;23.350;2023-02-28T02:02:45;95962.66;;;5.57;100.00
51083;BME280;37131;42.694;23.350;2023-02-28T02:05:20;95957.63;;;5.40;100.00
51083;BME280;37131;42.694;23.350;2023-02-28T02:07:48;95961.03;;;5.56;100.00
51083;BME280;37131;42.694;23.350;2023-02-28T02:10:17;95954.06;;;5.56;100.00
51083;BME280;37131;42.694;23.350;2023-02-28T02:18:26;95944.38;;;5.58;100.00
51083;BME280;37131;42.694;23.350;2023-02-28T02:25:55;95941.38;;;5.32;100.00
51083;BME280;37131;42.694;23.350;2023-02-28T02:31:37;95941.81;;;5.12;100.00
51083;BME280;37131;42.694;23.350;2023-02-28T02:37:07;95956.59;;;5.26;100.00
51083;BME280;37131;42.694;23.350;2023-02-28T02:42:39;95959.72;;;5.14;100.00
51083;BME280;37131;42.694;23.350;2023-02-28T02:45:19;95956.22;;;5.30;100.00
51083;BME280;37131;42.694;23.350;2023-02-28T02:47:46;95967.50;;;5.14;100.00
51083;BME280;37131;42.694;23.350;2023-02-28T02:50:19;95973.22;;;5.24;100.00
51083;BME280;37131;42.694;23.350;2023-02-28T02:52:51;95964.72;;;5.15;100.00
51083;BME280;37131;42.694;23.350;2023-02-28T02:55:20;95958.41;;;5.18;100.00
51083;BME280;37131;42.694;23.350;2023-02-28T02:57:47;95966.88;;;5.12;100.00
51083;BME280;37131;42.694;23.350;2023-02-28T03:00:17;95961.06;;;5.33;100.00
51083;BME280;37131;42.694;23.350;2023-02-28T03:02:45;95957.16;;;5.14;100.00
51083;BME280;37131;42.694;23.350;2023-02-28T03:05:20;95982.72;;;5.08;100.00
51083;BME280;37131;42.694;23.350;2023-02-28T03:07:47;95980.81;;;5.02;100.00
51083;BME280;37131;42.694;23.350;2023-02-28T03:19:12;95999.97;;;5.39;100.00
51083;BME280;37131;42.694;23.350;2023-02-28T03:22:24;95996.56;;;5.62;100.00
51083;BME280;37131;42.694;23.350;2023-02-28T03:25:16;95947.16;;;5.10;100.00
51083;BME280;37131;42.694;23.350;2023-02-28T03:27:52;96008.81;;;5.45;100.00
51083;BME280;37131;42.694;23.350;2023-02-28T03:30:22;96007.03;;;5.45;100.00
51083;BME280;37131;42.694;23.350;2023-02-28T03:32:57;96014.53;;;5.40;100.00
51083;BME280;37131;42.694;23.350;2023-02-28T03:35:28;96015.09;;;5.51;100.00
51083;BME280;37131;42.694;23.350;2023-02-28T03:38:01;96007.81;;;5.46;100.00
51083;BME280;37131;42.694;23.350;2023-02-28T03:40:32;96025.72;;;5.01;100.00
51083;BME280;37131;42.694;23.350;2023-02-28T03:43:03;96013.50;;;4.87;100.00
51083;BME280;37131;42.694;23.350;2023-02-28T03:45:35;96024.69;;;5.10;100.00
51083;BME280;37131;42.694;23.350;2023-02-28T03:50:49;96010.25;;;5.24;100.00
51083;BME280;37131;42.694;23.350;2023-02-28T03:53:39;96028.19;;;5.26;100.00
51083;BME280;37131;42.694;23.350;2023-02-28T03:56:11;96025.59;;;5.26;100.00
51083;BME280;37131;42.694;23.350;2023-02-28T03:59:00;96015.63;;;5.15;100.00
51083;BME280;37131;42.694;23.350;2023-02-28T04:01:47;96022.31;;;5.32;100.00
51083;BME280;37131;42.694;23.350;2023-02-28T04:04:13;96027.22;;;5.27;100.00
51083;BME280;37131;42.694;23.350;2023-02-28T04:06:40;96031.56;;;5.26;100.00
51083;BME280;37131;42.694;23.350;2023-02-28T04:09:07;96033.09;;;5.13;100.00
51083;BME280;37131;42.694;23.350;2023-02-28T04:11:37;96031.50;;;5.12;100.00
51083;BME280;37131;42.694;23.350;2023-02-28T04:14:04;96030.50;;;4.81;100.00
51083;BME280;37131;42.694;23.350;2023-02-28T04:16:33;96024.25;;;4.76;100.00
51083;BME280;37131;42.694;23.350;2023-02-28T04:18:59;96028.94;;;4.72;100.00
51083;BME280;37131;42.694;23.350;2023-02-28T04:21:29;96024.41;;;5.05;100.00
51083;BME280;37131;42.694;23.350;2023-02-28T04:23:55;96013.84;;;5.15;100.00
51083;BME280;37131;42.694;23.350;2023-02-28T04:26:31;96017.34;;;4.60;100.00
51083;BME280;37131;42.694;23.350;2023-02-28T04:28:58;96028.81;;;4.57;100.00
51083;BME280;37131;42.694;23.350;2023-02-28T04:31:23;96029.25;;;4.69;100.00
51083;BME280;37131;42.694;23.350;2023-02-28T04:33:49;96022.91;;;4.80;100.00
51083;BME280;37131;42.694;23.350;2023-02-28T04:36:14;96029.09;;;4.70;100.00
51083;BME280;37131;42.694;23.350;2023-02-28T04:38:43;96029.94;;;5.02;100.00
51083;BME280;37131;42.694;23.350;2023-02-28T04:41:08;96033.09;;;5.13;100.00
51083;BME280;37131;42.694;23.350;2023-02-28T04:43:34;96031.28;;;5.21;100.00
51083;BME280;37131;42.694;23.350;2023-02-28T04:46:02;96033.19;;;5.27;100.00
51083;BME280;37131;42.694;23.350;2023-02-28T04:48:29;96043.38;;;5.21;100.00
51083;BME280;37131;42.694;23.350;2023-02-28T04:50:55;96038.97;;;5.30;100.00
51083;BME280;37131;42.694;23.350;2023-02-28T04:53:24;96042.41;;;5.22;100.00
51083;BME280;37131;42.694;23.350;2023-02-28T04:55:50;96058.09;;;5.20;100.00
51083;BME280;37131;42.694;23.350;2023-02-28T04:58:15;96054.94;;;4.70;100.00
51083;BME280;37131;42.694;23.350;2023-02-28T05:00:41;96042.00;;;4.70;100.00
51083;BME280;37131;42.694;23.350;2023-02-28T05:03:06;96059.03;;;4.96;100.00
51083;BME280;37131;42.694;23.350;2023-02-28T05:05:32;96050.03;;;4.84;100.00
51083;BME280;37131;42.694;23.350;2023-02-28T05:07:57;96051.03;;;4.74;100.00
51083;BME280;37131;42.694;23.350;2023-02-28T05:10:23;96041.72;;;4.57;100.00
51083;BME280;37131;42.694;23.350;2023-02-28T05:12:48;96050.00;;;4.92;100.00
51083;BME280;37131;42.694;23.350;2023-02-28T05:15:15;96058.38;;;4.94;100.00
51083;BME280;37131;42.694;23.350;2023-02-28T05:17:41;96050.44;;;5.04;100.00
51083;BME280;37131;42.694;23.350;2023-02-28T05:20:07;96060.44;;;5.07;100.00
51083;BME280;37131;42.694;23.350;2023-02-28T05:22:36;96065.53;;;5.15;100.00
51083;BME280;37131;42.694;23.350;2023-02-28T05:25:02;96073.44;;;5.22;100.00
51083;BME280;37131;42.694;23.350;2023-02-28T05:27:27;96077.31;;;5.26;100.00
51083;BME280;37131;42.694;23.350;2023-02-28T05:29:53;96071.47;;;5.01;100.00
51083;BME280;37131;42.694;23.350;2023-02-28T05:32:18;96029.00;;;4.47;100.00
51083;BME280;37131;42.694;23.350;2023-02-28T05:34:44;96077.38;;;4.70;100.00
51083;BME280;37131;42.694;23.350;2023-02-28T05:37:12;96080.38;;;4.90;100.00
51083;BME280;37131;42.694;23.350;2023-02-28T05:39:38;96083.00;;;4.82;100.00
51083;BME280;37131;42.694;23.350;2023-02-28T05:42:04;96077.78;;;4.90;100.00
51083;BME280;37131;42.694;23.350;2023-02-28T05:44:29;96079.13;;;4.78;100.00
51083;BME280;37131;42.694;23.350;2023-02-28T05:46:55;96085.25;;;4.85;100.00
51083;BME280;37131;42.694;23.350;2023-02-28T05:49:21;96092.94;;;4.93;100.00
51083;BME280;37131;42.694;23.350;2023-02-28T05:51:46;96091.88;;;4.71;100.00
51083;BME280;37131;42.694;23.350;2023-02-28T05:54:12;96088.13;;;4.90;100.00
51083;BME280;37131;42.694;23.350;2023-02-28T05:56:37;96084.34;;;4.61;100.00
51083;BME280;37131;42.694;23.350;2023-02-28T05:59:09;96094.50;;;4.63;100.00
51083;BME280;37131;42.694;23.350;2023-02-28T06:01:36;96103.88;;;4.64;100.00
51083;BME280;37131;42.694;23.350;2023-02-28T06:04:03;96101.41;;;4.79;100.00
51083;BME280;37131;42.694;23.350;2023-02-28T06:06:29;96088.69;;;4.69;100.00
51083;BME280;37131;42.694;23.350;2023-02-28T06:08:55;96086.34;;;4.90;100.00
51083;BME280;37131;42.694;23.350;2023-02-28T06:11:21;96088.00;;;4.75;100.00
51083;BME280;37131;42.694;23.350;2023-02-28T06:13:54;96102.09;;;4.64;100.00
51083;BME280;37131;42.694;23.350;2023-02-28T06:16:20;96096.47;;;4.61;100.00
51083;BME280;37131;42.694;23.350;2023-02-28T06:18:45;96089.47;;;4.78;100.00
51083;BME280;37131;42.694;23.350;2023-02-28T06:21:12;96092.19;;;4.84;100.00
51083;BME280;37131;42.694;23.350;2023-02-28T06:23:38;96098.19;;;4.77;100.00
51083;BME280;37131;42.694;23.350;2023-02-28T06:26:03;96104.50;;;4.66;100.00
51083;BME280;37131;42.694;23.350;2023-02-28T06:28:29;96101.13;;;4.57;100.00
51083;BME280;37131;42.694;23.350;2023-02-28T06:30:54;96102.88;;;4.73;100.00
51083;BME280;37131;42.694;23.350;2023-02-28T06:33:20;96098.41;;;5.06;100.00
51083;BME280;37131;42.694;23.350;2023-02-28T06:35:52;96100.44;;;5.19;100.00
51083;BME280;37131;42.694;23.350;2023-02-28T06:38:18;96099.06;;;5.00;100.00
51083;BME280;37131;42.694;23.350;2023-02-28T06:40:44;96112.63;;;5.42;100.00
51083;BME280;37131;42.694;23.350;2023-02-28T06:43:10;96107.34;;;5.58;100.00
51083;BME280;37131;42.694;23.350;2023-02-28T06:45:41;96106.03;;;5.86;100.00
51083;BME280;37131;42.694;23.350;2023-02-28T06:48:07;96105.59;;;5.82;100.00
51083;BME280;37131;42.694;23.350;2023-02-28T06:50:32;96106.44;;;5.43;100.00
51083;BME280;37131;42.694;23.350;2023-02-28T06:52:58;96112.91;;;5.47;100.00
51083;BME280;37131;42.694;23.350;2023-02-28T06:55:23;96117.16;;;5.40;100.00
51083;BME280;37131;42.694;23.350;2023-02-28T06:57:49;96110.38;;;5.62;100.00
51083;BME280;37131;42.694;23.350;2023-02-28T07:00:15;96106.84;;;5.86;100.00
51083;BME280;37131;42.694;23.350;2023-02-28T07:02:41;96112.59;;;5.73;100.00
51083;BME280;37131;42.694;23.350;2023-02-28T07:05:07;96106.16;;;5.69;100.00
51083;BME280;37131;42.694;23.350;2023-02-28T07:07:32;96113.66;;;6.10;100.00
51083;BME280;37131;42.694;23.350;2023-02-28T07:09:58;96109.88;;;5.98;100.00
51083;BME280;37131;42.694;23.350;2023-02-28T07:12:23;96097.69;;;6.22;100.00
51083;BME280;37131;42.694;23.350;2023-02-28T07:14:49;96109.44;;;5.86;100.00
51083;BME280;37131;42.694;23.350;2023-02-28T07:17:14;96100.06;;;5.85;100.00
51083;BME280;37131;42.694;23.350;2023-02-28T07:19:40;96076.03;;;4.90;100.00
51083;BME280;37131;42.694;23.350;2023-02-28T07:22:06;96108.56;;;5.71;100.00
51083;BME280;37131;42.694;23.350;2023-02-28T07:24:31;96103.09;;;5.66;100.00
51083;BME280;37131;42.694;23.350;2023-02-28T07:26:57;96108.63;;;5.86;100.00
51083;BME280;37131;42.694;23.350;2023-02-28T07:29:22;96114.53;;;5.94;100.00
51083;BME280;37131;42.694;23.350;2023-02-28T07:31:48;96116.28;;;6.02;100.00
51083;BME280;37131;42.694;23.350;2023-02-28T07:34:15;96109.59;;;6.31;100.00
51083;BME280;37131;42.694;23.350;2023-02-28T07:36:41;96102.94;;;6.52;100.00
51083;BME280;37131;42.694;23.350;2023-02-28T07:39:06;96110.53;;;6.68;100.00
51083;BME280;37131;42.694;23.350;2023-02-28T07:41:33;96101.06;;;6.75;100.00
51083;BME280;37131;42.694;23.350;2023-02-28T07:44:02;96104.06;;;6.34;100.00
51083;BME280;37131;42.694;23.350;2023-02-28T07:46:28;96102.94;;;6.52;100.00
51083;BME280;37131;42.694;23.350;2023-02-28T07:49:00;96092.28;;;6.61;100.00
51083;BME280;37131;42.694;23.350;2023-02-28T07:51:25;96102.50;;;6.93;100.00
51083;BME280;37131;42.694;23.350;2023-02-28T07:53:51;96101.78;;;6.99;100.00
51083;BME280;37131;42.694;23.350;2023-02-28T07:56:16;96107.75;;;6.17;100.00
51083;BME280;37131;42.694;23.350;2023-02-28T07:58:41;96104.16;;;6.41;100.00
51083;BME280;37131;42.694;23.350;2023-02-28T08:01:08;96099.72;;;6.79;100.00
51083;BME280;37131;42.694;23.350;2023-02-28T08:03:34;96101.97;;;6.82;100.00
51083;BME280;37131;42.694;23.350;2023-02-28T08:06:00;96090.06;;;6.88;100.00
51083;BME280;37131;42.694;23.350;2023-02-28T08:08:27;96076.78;;;7.13;100.00
51083;BME280;37131;42.694;23.350;2023-02-28T08:10:59;96097.31;;;6.93;100.00
51083;BME280;37131;42.694;23.350;2023-02-28T08:13:25;96106.69;;;6.79;100.00
51083;BME280;37131;42.694;23.350;2023-02-28T08:15:53;96064.16;;;6.88;100.00
51083;BME280;37131;42.694;23.350;2023-02-28T08:18:19;96093.22;;;7.35;100.00
51083;BME280;37131;42.694;23.350;2023-02-28T08:20:44;96094.97;;;7.49;100.00
51083;BME280;37131;42.694;23.350;2023-02-28T08:23:10;96101.47;;;7.60;100.00
51083;BME280;37131;42.694;23.350;2023-02-28T08:25:35;96093.16;;;7.65;100.00
51083;BME280;37131;42.694;23.350;2023-02-28T08:28:01;96083.78;;;7.70;100.00
51083;BME280;37131;42.694;23.350;2023-02-28T08:30:26;96099.09;;;8.02;100.00
51083;BME280;37131;42.694;23.350;2023-02-28T08:32:51;96097.75;;;8.63;100.00
51083;BME280;37131;42.694;23.350;2023-02-28T08:35:17;96101.44;;;8.75;99.73
51083;BME280;37131;42.694;23.350;2023-02-28T08:37:42;96098.91;;;8.32;98.75
51083;BME280;37131;42.694;23.350;2023-02-28T08:40:08;96095.69;;;8.51;99.82
51083;BME280;37131;42.694;23.350;2023-02-28T08:42:34;96098.94;;;8.60;100.00
51083;BME280;37131;42.694;23.350;2023-02-28T08:44:59;96093.69;;;8.88;99.28
51083;BME280;37131;42.694;23.350;2023-02-28T08:47:25;96099.47;;;9.25;96.76
51083;BME280;37131;42.694;23.350;2023-02-28T08:49:51;96098.13;;;8.94;99.16
51083;BME280;37131;42.694;23.350;2023-02-28T08:52:16;96072.38;;;9.06;98.69
51083;BME280;37131;42.694;23.350;2023-02-28T08:54:41;96085.50;;;9.40;99.55
51083;BME280;37131;42.694;23.350;2023-02-28T08:57:07;96081.22;;;9.87;97.95
51083;BME280;37131;42.694;23.350;2023-02-28T08:59:32;96085.81;;;10.05;96.00
51083;BME280;37131;42.694;23.350;2023-02-28T09:01:58;96088.25;;;10.27;95.74
51083;BME280;37131;42.694;23.350;2023-02-28T09:04:23;96086.63;;;10.73;92.70
51083;BME280;37131;42.694;23.350;2023-02-28T09:06:48;96090.28;;;10.51;91.75
51083;BME280;37131;42.694;23.350;2023-02-28T09:09:15;96089.81;;;10.75;91.01
51083;BME280;37131;42.694;23.350;2023-02-28T09:11:41;96067.72;;;10.97;89.38
51083;BME280;37131;42.694;23.350;2023-02-28T09:14:07;96067.41;;;11.19;88.99
51083;BME280;37131;42.694;23.350;2023-02-28T09:16:33;96030.50;;;11.09;87.26
51083;BME280;37131;42.694;23.350;2023-02-28T09:18:58;96072.19;;;11.35;86.52
51083;BME280;37131;42.694;23.350;2023-02-28T09:21:24;96071.97;;;11.30;85.96
51083;BME280;37131;42.694;23.350;2023-02-28T09:23:50;96074.25;;;11.20;86.84
51083;BME280;37131;42.694;23.350;2023-02-28T09:26:22;96081.50;;;11.11;88.49
51083;BME280;37131;42.694;23.350;2023-02-28T09:28:48;96080.41;;;10.74;88.71
51083;BME280;37131;42.694;23.350;2023-02-28T09:31:17;96085.63;;;10.74;88.96
51083;BME280;37131;42.694;23.350;2023-02-28T09:33:46;96076.75;;;10.95;86.35
51083;BME280;37131;42.694;23.350;2023-02-28T09:36:12;96073.31;;;11.01;86.30
51083;BME280;37131;42.694;23.350;2023-02-28T09:38:37;96072.59;;;10.74;87.30
51083;BME280;37131;42.694;23.350;2023-02-28T09:41:12;96071.34;;;10.83;88.02
51083;BME280;37131;42.694;23.350;2023-02-28T09:43:42;96062.78;;;11.21;87.08
51083;BME280;37131;42.694;23.350;2023-02-28T09:46:21;96077.69;;;11.59;85.28
51083;BME280;37131;42.694;23.350;2023-02-28T09:48:51;96064.56;;;11.66;84.43
51083;BME280;37131;42.694;23.350;2023-02-28T09:51:40;96052.94;;;11.62;82.08
51083;BME280;37131;42.694;23.350;2023-02-28T09:54:21;96076.44;;;11.62;80.80
51083;BME280;37131;42.694;23.350;2023-02-28T09:56:53;96066.63;;;11.57;83.24
51083;BME280;37131;42.694;23.350;2023-02-28T10:05:18;96058.91;;;11.75;81.19
51083;BME280;37131;42.694;23.350;2023-02-28T10:08:09;96061.81;;;11.54;82.85
51083;BME280;37131;42.694;23.350;2023-02-28T10:10:41;96055.31;;;11.70;80.75
51083;BME280;37131;42.694;23.350;2023-02-28T10:16:01;96051.75;;;12.21;78.34
51083;BME280;37131;42.694;23.350;2023-02-28T10:18:39;96051.78;;;12.15;78.18
51083;BME280;37131;42.694;23.350;2023-02-28T10:21:31;96050.97;;;12.39;76.10
51083;BME280;37131;42.694;23.350;2023-02-28T10:29:40;96045.31;;;11.92;76.56
51083;BME280;37131;42.694;23.350;2023-02-28T10:32:11;96039.13;;;11.86;77.97
51083;BME280;37131;42.694;23.350;2023-02-28T10:34:39;96042.50;;;11.87;76.55
51083;BME280;37131;42.694;23.350;2023-02-28T10:37:05;96030.75;;;12.28;76.44
51083;BME280;37131;42.694;23.350;2023-02-28T10:39:39;96023.13;;;12.26;76.56
51083;BME280;37131;42.694;23.350;2023-02-28T10:44:44;96016.66;;;12.73;74.07
51083;BME280;37131;42.694;23.350;2023-02-28T10:47:17;96020.91;;;12.49;75.17
51083;BME280;37131;42.694;23.350;2023-02-28T10:49:48;96022.66;;;12.73;73.71
51083;BME280;37131;42.694;23.350;2023-02-28T10:52:32;96013.72;;;12.25;73.95
51083;BME280;37131;42.694;23.350;2023-02-28T10:55:34;96007.09;;;12.41;73.04
51083;BME280;37131;42.694;23.350;2023-02-28T10:58:00;96001.75;;;12.92;72.78
51083;BME280;37131;42.694;23.350;2023-02-28T11:00:32;95995.22;;;13.13;72.35
51083;BME280;37131;42.694;23.350;2023-02-28T11:02:58;95983.88;;;12.70;72.75
51083;BME280;37131;42.694;23.350;2023-02-28T11:05:32;95988.50;;;12.87;73.17
51083;BME280;37131;42.694;23.350;2023-02-28T11:08:06;95982.72;;;13.15;73.61
51083;BME280;37131;42.694;23.350;2023-02-28T11:10:32;95979.81;;;13.05;74.05
51083;BME280;37131;42.694;23.350;2023-02-28T11:13:00;95974.13;;;12.77;73.02
51083;BME280;37131;42.694;23.350;2023-02-28T11:15:31;95987.13;;;12.84;73.97
51083;BME280;37131;42.694;23.350;2023-02-28T11:18:01;95989.16;;;13.31;71.53
51083;BME280;37131;42.694;23.350;2023-02-28T11:20:30;95984.28;;;12.49;71.36
51083;BME280;37131;42.694;23.350;2023-02-28T11:22:57;95986.72;;;12.06;74.46
51083;BME280;37131;42.694;23.350;2023-02-28T11:25:26;95966.47;;;12.20;74.52
51083;BME280;37131;42.694;23.350;2023-02-28T11:27:57;95970.50;;;12.60;72.23
51083;BME280;37131;42.694;23.350;2023-02-28T11:30:39;95973.91;;;11.98;74.19
51083;BME280;37131;42.694;23.350;2023-02-28T11:33:21;95975.72;;;12.23;74.10
51083;BME280;37131;42.694;23.350;2023-02-28T11:35:49;95971.13;;;12.18;74.58
51083;BME280;37131;42.694;23.350;2023-02-28T11:38:15;95965.97;;;12.49;72.76
51083;BME280;37131;42.694;23.350;2023-02-28T11:52:13;95966.28;;;12.59;73.86
51083;BME280;37131;42.694;23.350;2023-02-28T12:08:31;95955.75;;;12.96;70.65
51083;BME280;37131;42.694;23.350;2023-02-28T12:17:06;95948.13;;;13.67;65.21
51083;BME280;37131;42.694;23.350;2023-02-28T12:19:47;95948.59;;;13.99;63.37
51083;BME280;37131;42.694;23.350;2023-02-28T12:22:30;95939.81;;;13.46;65.99
51083;BME280;37131;42.694;23.350;2023-02-28T12:27:42;95949.19;;;13.90;64.65
51083;BME280;37131;42.694;23.350;2023-02-28T12:30:14;95955.53;;;13.46;66.78
51083;BME280;37131;42.694;23.350;2023-02-28T12:32:45;95952.22;;;13.21;66.89
51083;BME280;37131;42.694;23.350;2023-02-28T12:35:19;95959.19;;;12.96;68.01
51083;BME280;37131;42.694;23.350;2023-02-28T12:37:51;95959.38;;;13.44;67.29
51083;BME280;37131;42.694;23.350;2023-02-28T12:40:31;95944.59;;;13.19;67.09
51083;BME280;37131;42.694;23.350;2023-02-28T12:43:02;95944.84;;;12.32;69.93
51083;BME280;37131;42.694;23.350;2023-02-28T12:45:53;95947.00;;;12.53;70.63
51083;BME280;37131;42.694;23.350;2023-02-28T12:48:56;95940.50;;;12.44;69.58
51083;BME280;37131;42.694;23.350;2023-02-28T12:51:22;95936.13;;;12.38;69.15
51083;BME280;37131;42.694;23.350;2023-02-28T12:54:07;95939.91;;;12.60;69.51
51083;BME280;37131;42.694;23.350;2023-02-28T13:10:51;95943.81;;;12.33;70.07
51083;BME280;37131;42.694;23.350;2023-02-28T13:13:24;95935.69;;;12.59;69.08
51083;BME280;37131;42.694;23.350;2023-02-28T13:16:05;95931.09;;;12.73;68.40
51083;BME280;37131;42.694;23.350;2023-02-28T13:18:34;95937.00;;;12.32;68.76
51083;BME280;37131;42.694;23.350;2023-02-28T13:21:07;95871.06;;;12.11;68.92
51083;BME280;37131;42.694;23.350;2023-02-28T13:24:02;95935.31;;;12.74;68.17
51083;BME280;37131;42.694;23.350;2023-02-28T13:34:27;95928.34;;;12.50;69.22
51083;BME280;37131;42.694;23.350;2023-02-28T13:42:36;95881.56;;;11.86;69.88
51083;BME280;37131;42.694;23.350;2023-02-28T13:47:29;95920.50;;;12.31;69.33
51083;BME280;37131;42.694;23.350;2023-02-28T13:50:23;95928.50;;;11.99;71.60
51083;BME280;37131;42.694;23.350;2023-02-28T14:01:08;95913.75;;;12.23;69.85
51083;BME280;37131;42.694;23.350;2023-02-28T14:06:40;95913.59;;;12.00;70.48
51083;BME280;37131;42.694;23.350;2023-02-28T14:09:35;95920.44;;;12.01;70.46
51083;BME280;37131;42.694;23.350;2023-02-28T14:15:30;95928.53;;;11.67;71.90
51083;BME280;37131;42.694;23.350;2023-02-28T14:18:03;95891.97;;;11.42;72.71
51083;BME280;37131;42.694;23.350;2023-02-28T14:20:33;95927.97;;;11.33;74.50
51083;BME280;37131;42.694;23.350;2023-02-28T14:23:03;95917.59;;;11.52;74.77
51083;BME280;37131;42.694;23.350;2023-02-28T14:31:38;95930.06;;;11.50;74.35
51083;BME280;37131;42.694;23.350;2023-02-28T14:36:48;95930.81;;;11.57;73.74
51083;BME280;37131;42.694;23.350;2023-02-28T14:39:17;95934.63;;;11.29;75.58
51083;BME280;37131;42.694;23.350;2023-02-28T14:41:45;95933.19;;;11.33;75.71
51083;BME280;37131;42.694;23.350;2023-02-28T14:44:22;95931.53;;;11.46;74.49
51083;BME280;37131;42.694;23.350;2023-02-28T14:46:50;95930.34;;;11.10;76.00
51083;BME280;37131;42.694;23.350;2023-02-28T14:49:25;95931.53;;;11.14;75.65
51083;BME280;37131;42.694;23.350;2023-02-28T14:52:19;95932.78;;;11.04;77.09
51083;BME280;37131;42.694;23.350;2023-02-28T14:54:46;95927.38;;;10.67;79.42
51083;BME280;37131;42.694;23.350;2023-02-28T14:57:40;95928.84;;;10.88;78.38
51083;BME280;37131;42.694;23.350;2023-02-28T15:00:28;95941.34;;;10.73;79.63
51083;BME280;37131;42.694;23.350;2023-02-28T15:02:56;95941.19;;;10.68;79.14
51083;BME280;37131;42.694;23.350;2023-02-28T15:05:26;95932.47;;;10.87;79.12
51083;BME280;37131;42.694;23.350;2023-02-28T15:08:10;95926.00;;;10.97;78.49
51083;BME280;37131;42.694;23.350;2023-02-28T15:10:37;95932.94;;;10.78;79.54
51083;BME280;37131;42.694;23.350;2023-02-28T15:13:07;95929.56;;;10.70;79.55
51083;BME280;37131;42.694;23.350;2023-02-28T15:15:55;95920.41;;;10.48;81.08
51083;BME280;37131;42.694;23.350;2023-02-28T15:18:49;95934.63;;;10.59;81.29
51083;BME280;37131;42.694;23.350;2023-02-28T15:21:21;95934.88;;;10.44;81.98